
Distance (Route):
Temperature : 2.2°C
Humidity : 0%
Pressure : 0hPa| Receiver | Date | Latitude | Longitude | Direction | Speed | Altitude | Climb | Temperature | Humidity | Pressure | Voltage | Killtimer | Uptime | BKT | XDATA |
|---|---|---|---|---|---|---|---|---|---|---|---|---|---|---|---|
| DB0UT-7 | 2026-09-03 01:50:26 | 48.19730 | 3.68360 | 118° | 44km/h | 3775m | -9.3m/s | 2.2°C | 0% | 0hPa | 4.4V | 00:00:00 | 00:00:00 | 00:00:00 | |
| DB0UT-7 | 2026-09-03 01:49:00 | 48.20125 | 3.66985 | 111° | 49km/h | 4191m | -4.4m/s | 0.3°C | 0% | 0hPa | 4.4V | 00:00:00 | 00:00:00 | 00:00:00 | |
| DB0UT-7 | 2026-09-03 01:48:30 | 48.20302 | 3.66486 | 112° | 51km/h | 4316m | -3.8m/s | -0.3°C | 0% | 0hPa | 4.4V | 00:00:00 | 00:00:00 | 00:00:00 | |
| DB0UT-7 | 2026-09-03 01:48:00 | 48.20459 | 3.65944 | 127° | 49km/h | 4441m | -3.6m/s | -0.7°C | 0% | 0hPa | 4.4V | 00:00:00 | 00:00:00 | 00:00:00 | |
| DB0UT-7 | 2026-09-03 01:47:29 | 48.20617 | 3.65433 | 134° | 51km/h | 4560m | -3.9m/s | -1.5°C | 0% | 0hPa | 4.4V | 00:00:00 | 00:00:00 | 00:00:00 | |
| DB0UT-7 | 2026-09-03 01:46:59 | 48.20819 | 3.64949 | 140° | 55km/h | 4676m | -3.8m/s | -1.1°C | 0% | 0hPa | 4.4V | 00:00:00 | 00:00:00 | 00:00:00 | |
| DB0UT-7 | 2026-09-03 01:46:29 | 48.21071 | 3.64479 | 138° | 58km/h | 4791m | -3.7m/s | -1.4°C | 0% | 0hPa | 4.4V | 00:00:00 | 00:00:00 | 00:00:00 | |
| DB0UT-7 | 2026-09-03 01:45:59 | 48.21353 | 3.63993 | 133° | 60km/h | 4905m | -3.6m/s | -2.3°C | 0% | 0hPa | 4.4V | 00:00:00 | 00:00:00 | 00:00:00 | |
| DB0UT-7 | 2026-09-03 01:45:29 | 48.21672 | 3.63502 | 122° | 68km/h | 5030m | -4.1m/s | -3.5°C | 0% | 0hPa | 4.4V | 00:00:00 | 00:00:00 | 00:00:00 | |
| DB0UT-7 | 2026-09-03 01:44:59 | 48.22018 | 3.62951 | 122° | 71km/h | 5150m | -4.1m/s | -4.3°C | 0% | 0hPa | 4.4V | 00:00:00 | 00:00:00 | 00:00:00 | |
| DB0UT-7 | 2026-09-03 01:44:29 | 48.22375 | 3.62358 | 129° | 75km/h | 5272m | -3.9m/s | -4.9°C | 0% | 0hPa | 4.4V | 00:00:00 | 00:00:00 | 00:00:00 | |
| DB0UT-7 | 2026-09-03 01:43:59 | 48.22766 | 3.61748 | 136° | 77km/h | 5401m | -3.9m/s | -6.0°C | 0% | 0hPa | 4.4V | 00:00:00 | 00:00:00 | 00:00:00 | |
| DB0UT-7 | 2026-09-03 01:43:29 | 48.23170 | 3.61123 | 141° | 80km/h | 5524m | -4.1m/s | -7.2°C | 0% | 0hPa | 4.4V | 00:00:00 | 00:00:00 | 00:00:00 | |
| DB0UT-7 | 2026-09-03 01:42:59 | 48.23597 | 3.60494 | 144° | 77km/h | 5643m | -4.0m/s | -8.0°C | 0% | 0hPa | 4.4V | 00:00:00 | 00:00:00 | 00:00:00 | |
| DB0UT-7 | 2026-09-03 01:42:29 | 48.24021 | 3.59897 | 146° | 78km/h | 5768m | -4.0m/s | -8.7°C | 0% | 0hPa | 4.4V | 00:00:00 | 00:00:00 | 00:00:00 | |
| DB0UT-7 | 2026-09-03 01:41:59 | 48.24428 | 3.59252 | 143° | 78km/h | 5894m | -4.3m/s | -9.3°C | 0% | 0hPa | 4.4V | 00:00:00 | 00:00:00 | 00:00:00 | |
| DB0UT-7 | 2026-09-03 01:41:29 | 48.24801 | 3.58559 | 139° | 84km/h | 6019m | -4.0m/s | -10.2°C | 0% | 0hPa | 4.4V | 00:00:00 | 00:00:00 | 00:00:00 | |
| DB0UT-7 | 2026-09-03 01:40:59 | 48.25166 | 3.57795 | 136° | 89km/h | 6144m | -4.1m/s | -10.9°C | 0% | 0hPa | 4.4V | 00:00:00 | 00:00:00 | 00:00:00 | |
| DB0UT-7 | 2026-09-03 01:40:29 | 48.25547 | 3.56966 | 134° | 91km/h | 6271m | -4.3m/s | -12.0°C | 0% | 0hPa | 4.4V | 00:00:00 | 00:00:00 | 00:00:00 | |
| DB0UT-7 | 2026-09-03 01:39:59 | 48.25938 | 3.56101 | 132° | 91km/h | 6400m | -4.3m/s | -13.2°C | 0% | 0hPa | 4.4V | 00:00:00 | 00:00:00 | 00:00:00 | |
| DB0UT-7 | 2026-09-03 01:39:29 | 48.26317 | 3.55259 | 117° | 88km/h | 6538m | -4.3m/s | -14.5°C | 0% | 0hPa | 4.4V | 00:00:00 | 00:00:00 | 00:00:00 | |
| DB0UT-7 | 2026-09-03 01:38:59 | 48.26686 | 3.54432 | 127° | 88km/h | 6668m | -4.0m/s | -15.6°C | 0% | 0hPa | 4.4V | 00:00:00 | 00:00:00 | 00:00:00 | |
| DB0UT-7 | 2026-09-03 01:38:29 | 48.27048 | 3.53592 | 123° | 89km/h | 6838m | -6.0m/s | -16.8°C | 0% | 0hPa | 4.4V | 00:00:00 | 00:00:00 | 00:00:00 | |
| DB0UT-7 | 2026-09-03 01:37:59 | 48.27419 | 3.52747 | 121° | 91km/h | 7010m | -6.2m/s | -18.1°C | 0% | 0hPa | 4.4V | 00:00:00 | 00:00:00 | 00:00:00 | |
| DB0UT-7 | 2026-09-03 01:37:29 | 48.27792 | 3.51880 | 116° | 91km/h | 7190m | -5.8m/s | -19.8°C | 0% | 0hPa | 4.4V | 00:00:00 | 00:00:00 | 00:00:00 | |
| DB0UT-7 | 2026-09-03 01:36:59 | 48.28166 | 3.51007 | 124° | 93km/h | 7366m | -6.2m/s | -21.5°C | 0% | 0hPa | 4.4V | 00:00:00 | 00:00:00 | 00:00:00 | |
| DB0UT-7 | 2026-09-03 01:36:29 | 48.28566 | 3.50133 | 128° | 91km/h | 7546m | -6.0m/s | -23.2°C | 0% | 0hPa | 4.4V | 00:00:00 | 00:00:00 | 00:00:00 | |
| DB0UT-7 | 2026-09-03 01:35:59 | 48.28971 | 3.49280 | 127° | 99km/h | 7732m | -5.1m/s | -23.9°C | 0% | 0hPa | 4.4V | 00:00:00 | 00:00:00 | 00:00:00 | |
| DB0UT-7 | 2026-09-03 01:35:29 | 48.29351 | 3.48321 | 118° | 99km/h | 7885m | -4.0m/s | -24.4°C | 0% | 0hPa | 4.4V | 00:00:00 | 00:00:00 | 00:00:00 | |
| DB0UT-7 | 2026-09-03 01:34:59 | 48.29692 | 3.47323 | 121° | 99km/h | 8079m | -5.7m/s | -25.9°C | 0% | 0hPa | 4.4V | 00:00:00 | 00:00:00 | 00:00:00 | |
| DB0UT-7 | 2026-09-03 01:33:58 | 48.30368 | 3.45310 | 118° | 91km/h | 8427m | -5.7m/s | -28.5°C | 0% | 0hPa | 4.4V | 00:00:00 | 00:00:00 | 00:00:00 | |
| DB0UT-7 | 2026-09-03 01:33:28 | 48.30673 | 3.44374 | 117° | 91km/h | 8593m | -5.5m/s | -29.7°C | 0% | 0hPa | 4.4V | 00:00:00 | 00:00:00 | 00:00:00 | |
| DB0UT-7 | 2026-09-03 01:32:58 | 48.30968 | 3.43426 | 117° | 93km/h | 8760m | -5.5m/s | -30.7°C | 0% | 0hPa | 4.4V | 00:00:00 | 00:00:00 | 00:00:00 | |
| DB0UT-7 | 2026-09-03 01:32:28 | 48.31280 | 3.42466 | 115° | 95km/h | 8926m | -5.6m/s | -32.1°C | 0% | 0hPa | 4.4V | 00:00:00 | 00:00:00 | 00:00:00 | |
| DB0UT-7 | 2026-09-03 01:31:58 | 48.31581 | 3.41478 | 114° | 99km/h | 9094m | -5.6m/s | -33.2°C | 0% | 0hPa | 4.4V | 00:00:00 | 00:00:00 | 00:00:00 | |
| DB0UT-7 | 2026-09-03 01:31:28 | 48.31904 | 3.40461 | 116° | 100km/h | 9262m | -5.6m/s | -34.4°C | 0% | 0hPa | 4.4V | 00:00:00 | 00:00:00 | 00:00:00 | |
| DB0UT-7 | 2026-09-03 01:30:58 | 48.32240 | 3.39435 | 117° | 102km/h | 9428m | -5.4m/s | -35.9°C | 0% | 0hPa | 4.4V | 00:00:00 | 00:00:00 | 00:00:00 | |
| DB0UT-7 | 2026-09-03 01:30:28 | 48.32580 | 3.38392 | 118° | 100km/h | 9598m | -5.7m/s | -37.4°C | 0% | 0hPa | 4.4V | 00:00:00 | 00:00:00 | 00:00:00 | |
| DB0UT-7 | 2026-09-03 01:29:58 | 48.32913 | 3.37370 | 120° | 97km/h | 9770m | -5.4m/s | -38.8°C | 0% | 0hPa | 4.4V | 00:00:00 | 00:00:00 | 00:00:00 | |
| DB0UT-7 | 2026-09-03 01:29:28 | 48.33257 | 3.36427 | 115° | 91km/h | 9939m | -6.4m/s | -40.0°C | 0% | 0hPa | 4.4V | 00:00:00 | 00:00:00 | 00:00:00 | |
| DB0UT-7 | 2026-09-03 01:28:58 | 48.33624 | 3.35533 | 135° | 91km/h | 10112m | -4.1m/s | -41.2°C | 0% | 0hPa | 4.5V | 00:00:00 | 00:00:00 | 00:00:00 | |
| DB0UT-7 | 2026-09-03 01:28:28 | 48.33977 | 3.34664 | 121° | 95km/h | 10261m | -4.7m/s | -42.2°C | 0% | 0hPa | 4.5V | 00:00:00 | 00:00:00 | 00:00:00 | |
| DB0UT-7 | 2026-09-03 01:27:58 | 48.34368 | 3.33745 | 125° | 104km/h | 10426m | -5.3m/s | -43.3°C | 0% | 0hPa | 4.5V | 00:00:00 | 00:00:00 | 00:00:00 | |
| DB0UT-7 | 2026-09-03 01:27:22 | 48.34880 | 3.32595 | 127° | 97km/h | 10634m | -5.1m/s | -45.1°C | 0% | 0hPa | 4.5V | 00:00:00 | 00:00:00 | 00:00:00 | |
| DB0UT-7 | 2026-09-03 01:26:51 | 48.35294 | 3.31649 | 124° | 99km/h | 10850m | -6.9m/s | -46.7°C | 0% | 0hPa | 4.5V | 00:00:00 | 00:00:00 | 00:00:00 | |
| DB0UT-7 | 2026-09-03 01:26:21 | 48.35709 | 3.30737 | 127° | 102km/h | 11069m | -7.4m/s | -48.1°C | 0% | 0hPa | 4.5V | 00:00:00 | 00:00:00 | 00:00:00 | |
| DB0UT-7 | 2026-09-03 01:25:19 | 48.36596 | 3.28864 | 141° | 97km/h | 11542m | -7.6m/s | -51.6°C | 0% | 0hPa | 4.5V | 00:00:00 | 00:00:00 | 00:00:00 | |
| DB0UT-7 | 2026-09-03 01:24:49 | 48.37026 | 3.27987 | 141° | 99km/h | 11774m | -7.5m/s | -53.2°C | 0% | 0hPa | 4.5V | 00:00:00 | 00:00:00 | 00:00:00 | |
| DB0UT-7 | 2026-09-03 01:24:19 | 48.37473 | 3.27077 | 140° | 100km/h | 12006m | -7.6m/s | -54.9°C | 0% | 0hPa | 4.6V | 00:00:00 | 00:00:00 | 00:00:00 | |
| DB0UT-7 | 2026-09-03 01:23:49 | 48.37912 | 3.26147 | 140° | 99km/h | 12238m | -7.5m/s | -56.5°C | 0% | 0hPa | 4.6V | 00:00:00 | 00:00:00 | 00:00:00 | |
| DB0UT-7 | 2026-09-03 01:22:49 | 48.38758 | 3.24385 | 143° | 95km/h | 12702m | -7.6m/s | -59.1°C | 0% | 0hPa | 4.6V | 00:00:00 | 00:00:00 | 00:00:00 | |
| DB0UT-7 | 2026-09-03 01:22:17 | 48.39209 | 3.23503 | 132° | 102km/h | 12951m | -7.8m/s | -60.2°C | 0% | 0hPa | 4.6V | 00:00:00 | 00:00:00 | 00:00:00 | |
| DB0UT-7 | 2026-09-03 01:21:45 | 48.39597 | 3.22433 | 108° | 113km/h | 13208m | -8.3m/s | -60.7°C | 0% | 0hPa | 4.6V | 00:00:00 | 00:00:00 | 00:00:00 | |
| DB0UT-7 | 2026-09-03 01:21:15 | 48.39983 | 3.21304 | 110° | 117km/h | 13463m | -8.7m/s | -61.0°C | 0% | 0hPa | 4.6V | 00:00:00 | 00:00:00 | 00:00:00 | |
| DB0UT-7 | 2026-09-03 01:20:35 | 48.40539 | 3.19753 | 129° | 110km/h | 13824m | -9.5m/s | -59.9°C | 0% | 0hPa | 4.6V | 00:00:00 | 00:00:00 | 00:00:00 | |
| DB0UT-7 | 2026-09-03 01:20:05 | 48.40881 | 3.18640 | 119° | 104km/h | 14104m | -9.4m/s | -59.9°C | 0% | 0hPa | 4.6V | 00:00:00 | 00:00:00 | 00:00:00 | |
| DB0UT-7 | 2026-09-03 01:19:35 | 48.41178 | 3.17566 | 112° | 91km/h | 14384m | -9.8m/s | -60.2°C | 0% | 0hPa | 4.6V | 00:00:00 | 00:00:00 | 00:00:00 | |
| DB0UT-7 | 2026-09-03 01:18:26 | 48.41868 | 3.15270 | 135° | 86km/h | 15046m | -9.8m/s | -59.0°C | 0% | 0hPa | 4.6V | 00:00:00 | 00:00:00 | 00:00:00 | |
| DB0UT-7 | 2026-09-03 01:17:54 | 48.42066 | 3.14386 | 110° | 73km/h | 15366m | -10.3m/s | -57.6°C | 0% | 0hPa | 4.6V | 00:00:00 | 00:00:00 | 00:00:00 | |
| DB0UT-7 | 2026-09-03 01:16:42 | 48.42513 | 3.12765 | 87° | 78km/h | 16127m | -11.0m/s | -57.4°C | 0% | 0hPa | 4.7V | 00:00:00 | 00:00:00 | 00:00:00 | |
| DB0UT-7 | 2026-09-03 01:16:10 | 48.42763 | 3.12091 | 116° | 71km/h | 16479m | -11.6m/s | -57.9°C | 0% | 0hPa | 4.7V | 00:00:00 | 00:00:00 | 00:00:00 | |
| DB0UT-7 | 2026-09-03 01:14:59 | 48.43176 | 3.10929 | 116° | 62km/h | 17323m | -12.5m/s | -57.1°C | 0% | 0hPa | 4.7V | 00:00:00 | 00:00:00 | 00:00:00 | |
| DB0UT-7 | 2026-09-03 01:14:29 | 48.43203 | 3.10345 | 143° | 42km/h | 17698m | -12.5m/s | -57.2°C | 0% | 0hPa | 4.7V | 00:00:00 | 00:00:00 | 00:00:00 | |
| DB0UT-7 | 2026-09-03 01:13:16 | 48.43342 | 3.09342 | 165° | 38km/h | 18609m | -12.6m/s | -56.8°C | 0% | 0hPa | 4.7V | 00:00:00 | 00:00:00 | 00:00:00 | |
| DB0UT-7 | 2026-09-03 01:12:46 | 48.43430 | 3.09035 | 132° | 55km/h | 19012m | -13.5m/s | -56.2°C | 0% | 0hPa | 4.7V | 00:00:00 | 00:00:00 | 00:00:00 | |
| DB0UT-7 | 2026-09-03 01:12:15 | 48.43511 | 3.08614 | 60° | 33km/h | 19389m | -10.2m/s | -55.3°C | 0% | 0hPa | 4.7V | 00:00:00 | 00:00:00 | 00:00:00 | |
| DB0UT-7 | 2026-09-03 01:11:42 | 48.43524 | 3.08306 | 54° | 40km/h | 19770m | -11.4m/s | -54.3°C | 0% | 0hPa | 4.7V | 00:00:00 | 00:00:00 | 00:00:00 | |
| DB0UT-7 | 2026-09-03 01:11:12 | 48.43622 | 3.08052 | 85° | 38km/h | 20122m | -10.8m/s | -53.4°C | 0% | 0hPa | 4.7V | 00:00:00 | 00:00:00 | 00:00:00 | |
| DB0UT-7 | 2026-09-03 01:10:42 | 48.43582 | 3.07745 | 308° | 42km/h | 20490m | -11.9m/s | -54.2°C | 0% | 0hPa | 4.8V | 00:00:00 | 00:00:00 | 00:00:00 | |
| DB0UT-7 | 2026-09-03 01:09:44 | 48.43668 | 3.07341 | 248° | 33km/h | 21271m | -15.5m/s | -53.7°C | 0% | 0hPa | 4.8V | 00:00:00 | 00:00:00 | 00:00:00 | |
| DB0UT-7 | 2026-09-03 01:09:14 | 48.43667 | 3.07217 | 337° | 18km/h | 21702m | -13.0m/s | -54.8°C | 0% | 0hPa | 4.8V | 00:00:00 | 00:00:00 | 00:00:00 | |
| DO1YAY-16 | 2026-09-03 01:09:13 | 48.43660 | 3.07213 | 39° | 13km/h | 21758m | -14.2m/s | -55.7°C | 0.0% | -1.0hPa | 4.8V | 00:00:00 | 00:00:00 | 00:00:00 | |
| DB0UT-7 | 2026-09-03 01:08:40 | 48.43689 | 3.06977 | 159° | 44km/h | 22208m | -13.8m/s | -53.4°C | 0% | 0hPa | 4.8V | 00:00:00 | 00:00:00 | 00:00:00 | |
| DB0UT-7 | 2026-09-03 01:08:08 | 48.43813 | 3.06778 | 188° | 27km/h | 22724m | -19.0m/s | -51.6°C | 0% | 0hPa | 4.8V | 00:00:00 | 00:00:00 | 00:00:00 | |
| DB0UT-7 | 2026-09-03 01:07:37 | 48.43931 | 3.06798 | 196° | 11km/h | 23243m | -15.7m/s | -52.1°C | 0% | 0hPa | 4.8V | 00:00:00 | 00:00:00 | 00:00:00 | |
| DO1YAY-16 | 2026-09-03 01:07:09 | 48.44037 | 3.06817 | 246° | 27km/h | 23871m | -15.8m/s | -51.3°C | 0.0% | -1.0hPa | 4.8V | 00:00:00 | 00:00:00 | 00:00:00 | |
| DB0UT-7 | 2026-09-03 01:06:29 | 48.44009 | 3.06951 | 330° | 9km/h | 24351m | -16.7m/s | -50.8°C | 0% | 0hPa | 4.8V | 00:00:00 | 00:00:00 | 00:00:00 | |
| DB0UT-7 | 2026-09-03 01:05:57 | 48.43979 | 3.06997 | 275° | 11km/h | 24921m | -16.8m/s | -50.1°C | 0% | 0hPa | 4.8V | 00:00:00 | 00:00:00 | 00:00:00 | |
| DO1YAY-16 | 2026-09-03 01:05:36 | 48.43943 | 3.07087 | 32° | 5km/h | 25521m | -17.6m/s | -51.4°C | 0.0% | -1.0hPa | 4.8V | 00:00:00 | 00:00:00 | 00:00:00 | |
| DB0UT-7 | 2026-09-03 01:04:43 | 48.43978 | 3.06983 | 128° | 13km/h | 26285m | -19.0m/s | -50.0°C | 0% | 0hPa | 4.8V | 00:00:00 | 00:00:00 | 00:00:00 | |
| DB0UT-7 | 2026-09-03 01:04:13 | 48.44017 | 3.06997 | 20° | 11km/h | 26858m | -19.9m/s | -49.0°C | 0% | 0hPa | 4.8V | 00:00:00 | 00:00:00 | 00:00:00 | |
| DO1YAY-16 | 2026-09-03 01:04:02 | 48.44012 | 3.06978 | 195° | 7km/h | 27149m | -21.2m/s | -48.6°C | 0.0% | -1.0hPa | 4.8V | 00:00:00 | 00:00:00 | 00:00:00 | |
| DB0UT-7 | 2026-09-03 01:03:05 | 48.44012 | 3.06990 | 146° | 11km/h | 28330m | -24.1m/s | -46.1°C | 0% | 0hPa | 4.8V | 00:00:00 | 00:00:00 | 00:00:00 | |
| DB0UT-7 | 2026-09-03 01:02:30 | 48.44094 | 3.07025 | 255° | 13km/h | 29157m | -27.6m/s | -45.9°C | 0% | 0hPa | 4.8V | 00:00:00 | 00:00:00 | 00:00:00 | |
| DO1YAY-16 | 2026-09-03 01:01:58 | 48.44011 | 3.06914 | 65° | 20km/h | 30482m | -30.1m/s | -42.0°C | 0.0% | -1.0hPa | 4.8V | 00:00:00 | 00:00:00 | 00:00:00 | |
| DO1YAY-16 | 2026-09-03 01:01:27 | 48.43993 | 3.06823 | 63° | 15km/h | 30984m | -36.7m/s | -41.6°C | 0.0% | -1.0hPa | 4.8V | 00:00:00 | 00:00:00 | 00:00:00 | |
| DB0UT-7 | 2026-09-03 01:01:06 | 48.43968 | 3.06750 | 26° | 18km/h | 31715m | -36.3m/s | -40.5°C | 0% | 0hPa | 4.8V | 00:00:00 | 00:00:00 | 00:00:00 | |
| DJ2DS-15 | 2026-09-03 01:00:48 | 48.43934 | 3.06695 | 122° | 15km/h | 31986m | 6.0m/s | -40.6°C | 0% | 0hPa | 4.8V | 00:00:00 | 00:00:00 | 00:00:00 | |
| DB0UT-7 | 2026-09-03 01:00:36 | 48.43930 | 3.06659 | 59° | 16km/h | 31915m | 6.5m/s | -41.0°C | 0% | 0hPa | 4.8V | 00:00:00 | 00:00:00 | 00:00:00 | |
| DJ2DS-15 | 2026-09-03 01:00:28 | 48.43914 | 3.06634 | 114° | 16km/h | 31867m | 5.5m/s | -41.0°C | 0% | 0hPa | 4.8V | 00:00:00 | 00:00:00 | 00:00:00 | |
| DJ2DS-15 | 2026-09-03 01:00:09 | 48.43878 | 3.06559 | 37° | 15km/h | 31745m | 6.3m/s | -41.1°C | 0% | 0hPa | 4.9V | 00:00:00 | 00:00:00 | 00:00:00 | |
| DB0UT-7 | 2026-09-03 01:00:06 | 48.43870 | 3.06556 | 9° | 16km/h | 31735m | 4.5m/s | -41.2°C | 0% | 0hPa | 4.9V | 00:00:00 | 00:00:00 | 00:00:00 | |
| DJ2DS-15 | 2026-09-03 01:00:04 | 48.43862 | 3.06548 | 104° | 11km/h | 31716m | 6.9m/s | -41.5°C | 0.0% | -1.0hPa | 4.9V | 00:00:00 | 00:00:00 | 00:00:00 | |
| DJ2DS-15 | 2026-09-03 00:59:46 | 48.43837 | 3.06493 | 93° | 18km/h | 31614m | 7.1m/s | -41.7°C | 0% | 0hPa | 4.9V | 00:00:00 | 00:00:00 | 00:00:00 | |
| DB0UT-7 | 2026-09-03 00:59:36 | 48.43812 | 3.06444 | 96° | 18km/h | 31554m | 5.5m/s | -41.9°C | 0% | 0hPa | 4.9V | 00:00:00 | 00:00:00 | 00:00:00 | |
| DJ2DS-15 | 2026-09-03 00:59:25 | 48.43771 | 3.06393 | 56° | 16km/h | 31489m | 6.8m/s | -42.0°C | 0% | 0hPa | 4.9V | 00:00:00 | 00:00:00 | 00:00:00 | |
| DB0UT-7 | 2026-09-03 00:59:06 | 48.43732 | 3.06338 | 6° | 11km/h | 31374m | 5.6m/s | -42.3°C | 0% | 0hPa | 4.9V | 00:00:00 | 00:00:00 | 00:00:00 | |
| DJ2DS-15 | 2026-09-03 00:58:58 | 48.43733 | 3.06323 | 22° | 13km/h | 31325m | 7.1m/s | -42.3°C | 0% | 0hPa | 4.9V | 00:00:00 | 00:00:00 | 00:00:00 | |
| DB0UT-7 | 2026-09-03 00:58:36 | 48.43746 | 3.06281 | 126° | 18km/h | 31194m | 7.3m/s | -42.1°C | 0% | 0hPa | 4.9V | 00:00:00 | 00:00:00 | 00:00:00 | |
| DJ2DS-15 | 2026-09-03 00:58:29 | 48.43744 | 3.06236 | 332° | 16km/h | 31153m | 5.6m/s | -42.1°C | 0% | 0hPa | 4.9V | 00:00:00 | 00:00:00 | 00:00:00 | |
| DB0UT-7 | 2026-09-03 00:58:06 | 48.43730 | 3.06126 | 112° | 18km/h | 31015m | 6.9m/s | -42.2°C | 0% | 0hPa | 4.9V | 00:00:00 | 00:00:00 | 00:00:00 | |
| DJ2DS-15 | 2026-09-03 00:57:37 | 48.43768 | 3.05995 | 71° | 24km/h | 30842m | 6.3m/s | -42.1°C | 0% | 0hPa | 4.9V | 00:00:00 | 00:00:00 | 00:00:00 | |
| DB0UT-7 | 2026-09-03 00:57:36 | 48.43766 | 3.05988 | 65° | 26km/h | 30835m | 6.9m/s | -42.1°C | 0% | 0hPa | 4.9V | 00:00:00 | 00:00:00 | 00:00:00 | |
| DJ2DS-15 | 2026-09-03 00:57:11 | 48.43714 | 3.05847 | 28° | 24km/h | 30685m | 5.2m/s | -42.4°C | 0% | 0hPa | 4.9V | 00:00:00 | 00:00:00 | 00:00:00 | |
| DB0UT-7 | 2026-09-03 00:57:06 | 48.43693 | 3.05818 | 149° | 20km/h | 30658m | 5.4m/s | -42.8°C | 0% | 0hPa | 4.9V | 00:00:00 | 00:00:00 | 00:00:00 | |
| DJ2DS-15 | 2026-09-03 00:56:41 | 48.43645 | 3.05656 | 90° | 26km/h | 30512m | 4.5m/s | -43.1°C | 0% | 0hPa | 4.9V | 00:00:00 | 00:00:00 | 00:00:00 | |
| DB0UT-7 | 2026-09-03 00:56:37 | 48.43627 | 3.05634 | 46° | 24km/h | 30482m | 5.3m/s | -43.2°C | 0% | 0hPa | 4.9V | 00:00:00 | 00:00:00 | 00:00:00 | |
| DJ2DS-15 | 2026-09-03 00:56:19 | 48.43563 | 3.05522 | 13° | 15km/h | 30381m | 5.7m/s | -43.7°C | 0% | 0hPa | 4.9V | 00:00:00 | 00:00:00 | 00:00:00 | |
| DB0UT-7 | 2026-09-03 00:56:06 | 48.43514 | 3.05454 | 14° | 26km/h | 30301m | 7.3m/s | -44.1°C | 0% | 0hPa | 4.9V | 00:00:00 | 00:00:00 | 00:00:00 | |
| DB0UT-7 | 2026-09-03 00:55:36 | 48.43362 | 3.05351 | 39° | 13km/h | 30120m | 6.6m/s | -44.3°C | 0% | 0hPa | 4.9V | 00:00:00 | 00:00:00 | 00:00:00 | |
| DB0UT-7 | 2026-09-03 00:55:06 | 48.43306 | 3.05354 | 334° | 9km/h | 29935m | 5.4m/s | -44.8°C | 0% | 0hPa | 4.9V | 00:00:00 | 00:00:00 | 00:00:00 | |
| DJ2DS-15 | 2026-09-03 00:54:44 | 48.43279 | 3.05357 | 335° | 15km/h | 29797m | 6.8m/s | -44.9°C | 0% | 0hPa | 4.9V | 00:00:00 | 00:00:00 | 00:00:00 | |
| DB0UT-7 | 2026-09-03 00:54:36 | 48.43279 | 3.05344 | 6° | 15km/h | 29746m | 6.8m/s | -45.1°C | 0% | 0hPa | 4.9V | 00:00:00 | 00:00:00 | 00:00:00 | |
| DJ2DS-15 | 2026-09-03 00:54:24 | 48.43251 | 3.05306 | 42° | 13km/h | 29672m | 6.0m/s | -45.4°C | 0% | 0hPa | 4.9V | 00:00:00 | 00:00:00 | 00:00:00 | |
| DB0UT-7 | 2026-09-03 00:54:06 | 48.43218 | 3.05269 | 90° | 9km/h | 29560m | 6.4m/s | -45.6°C | 0% | 0hPa | 4.9V | 00:00:00 | 00:00:00 | 00:00:00 | |
| DJ2DS-15 | 2026-09-03 00:53:42 | 48.43213 | 3.05236 | 147° | 7km/h | 29415m | 5.8m/s | -45.8°C | 0% | 0hPa | 4.9V | 00:00:00 | 00:00:00 | 00:00:00 | |
| DB0UT-7 | 2026-09-03 00:53:36 | 48.43216 | 3.05230 | 165° | 11km/h | 29378m | 5.6m/s | -45.8°C | 0% | 0hPa | 4.9V | 00:00:00 | 00:00:00 | 00:00:00 | |
| DJ2DS-15 | 2026-09-03 00:53:22 | 48.43236 | 3.05233 | 256° | 11km/h | 29297m | 5.3m/s | -46.0°C | 0% | 0hPa | 4.9V | 00:00:00 | 00:00:00 | 00:00:00 | |
| DB0UT-7 | 2026-09-03 00:53:05 | 48.43249 | 3.05246 | 288° | 15km/h | 29195m | 6.0m/s | -46.1°C | 0% | 0hPa | 4.9V | 00:00:00 | 00:00:00 | 00:00:00 | |
| DJ2DS-15 | 2026-09-03 00:53:00 | 48.43251 | 3.05260 | 217° | 13km/h | 29165m | 6.6m/s | -46.1°C | 0% | 0hPa | 4.9V | 00:00:00 | 00:00:00 | 00:00:00 | |
| DJ2DS-15 | 2026-09-03 00:52:41 | 48.43299 | 3.05262 | 319° | 15km/h | 29050m | 4.4m/s | -46.4°C | 0% | 0hPa | 4.9V | 00:00:00 | 00:00:00 | 00:00:00 | |
| DB0UT-7 | 2026-09-03 00:52:35 | 48.43314 | 3.05249 | 163° | 16km/h | 29020m | 6.1m/s | -46.5°C | 0% | 0hPa | 4.9V | 00:00:00 | 00:00:00 | 00:00:00 | |
| DB0UT-7 | 2026-09-03 00:52:06 | 48.43424 | 3.05296 | 189° | 15km/h | 28844m | 5.0m/s | -46.4°C | 0% | 0hPa | 4.9V | 00:00:00 | 00:00:00 | 00:00:00 | |
| DB0UT-7 | 2026-09-03 00:51:35 | 48.43522 | 3.05349 | 166° | 13km/h | 28666m | 4.9m/s | -46.3°C | 0% | 0hPa | 4.9V | 00:00:00 | 00:00:00 | 00:00:00 | |
| DJ2DS-15 | 2026-09-03 00:51:05 | 48.43604 | 3.05318 | 134° | 15km/h | 28488m | 7.6m/s | -46.2°C | 0% | 0hPa | 4.9V | 00:00:00 | 00:00:00 | 00:00:00 | |
| DB0UT-7 | 2026-09-03 00:50:56 | 48.43629 | 3.05316 | 163° | 15km/h | 28437m | 6.1m/s | -46.1°C | 0% | 0hPa | 4.9V | 00:00:00 | 00:00:00 | 00:00:00 | |
| DJ2DS-15 | 2026-09-03 00:50:42 | 48.43662 | 3.05263 | 40° | 11km/h | 28355m | 5.0m/s | -46.2°C | 0% | 0hPa | 4.9V | 00:00:00 | 00:00:00 | 00:00:00 | |
| DB0UT-7 | 2026-09-03 00:50:26 | 48.43698 | 3.05229 | 91° | 9km/h | 28259m | 5.6m/s | -46.4°C | 0% | 0hPa | 5.0V | 00:00:00 | 00:00:00 | 00:00:00 | |
| DB0UT-7 | 2026-09-03 00:49:56 | 48.43712 | 3.05186 | 238° | 13km/h | 28077m | 7.4m/s | -46.8°C | 0% | 0hPa | 5.0V | 00:00:00 | 00:00:00 | 00:00:00 | |
| DB0UT-7 | 2026-09-03 00:49:25 | 48.43685 | 3.05200 | 71° | 16km/h | 27890m | 7.2m/s | -47.4°C | 0% | 0hPa | 5.0V | 00:00:00 | 00:00:00 | 00:00:00 | |
| DB0UT-7 | 2026-09-03 00:48:55 | 48.43587 | 3.05165 | 348° | 11km/h | 27713m | 4.9m/s | -47.4°C | 0% | 0hPa | 5.0V | 00:00:00 | 00:00:00 | 00:00:00 | |
| DB0UT-7 | 2026-09-03 00:48:25 | 48.43506 | 3.05177 | 345° | 11km/h | 27531m | 6.3m/s | -47.7°C | 0% | 0hPa | 5.0V | 00:00:00 | 00:00:00 | 00:00:00 | |
| DB0UT-7 | 2026-09-03 00:47:55 | 48.43501 | 3.05247 | 210° | 9km/h | 27348m | 6.0m/s | -47.8°C | 0% | 0hPa | 5.0V | 00:00:00 | 00:00:00 | 00:00:00 | |
| DB0UT-7 | 2026-09-03 00:47:24 | 48.43555 | 3.05273 | 163° | 13km/h | 27161m | 7.5m/s | -47.8°C | 0% | 0hPa | 5.0V | 00:00:00 | 00:00:00 | 00:00:00 | |
| DB0UT-7 | 2026-09-03 00:46:54 | 48.43591 | 3.05273 | 316° | 13km/h | 26977m | 7.1m/s | -48.0°C | 0% | 0hPa | 5.0V | 00:00:00 | 00:00:00 | 00:00:00 | |
| DB0UT-7 | 2026-09-03 00:46:24 | 48.43573 | 3.05217 | 151° | 13km/h | 26793m | 5.7m/s | -48.5°C | 0% | 0hPa | 5.0V | 00:00:00 | 00:00:00 | 00:00:00 | |
| DB0UT-7 | 2026-09-03 00:45:54 | 48.43504 | 3.05208 | 279° | 9km/h | 26613m | 5.0m/s | -48.6°C | 0% | 0hPa | 5.0V | 00:00:00 | 00:00:00 | 00:00:00 | |
| DB0UT-7 | 2026-09-03 00:45:24 | 48.43511 | 3.05266 | 237° | 16km/h | 26431m | 6.3m/s | -48.9°C | 0% | 0hPa | 5.0V | 00:00:00 | 00:00:00 | 00:00:00 | |
| DB0UT-7 | 2026-09-03 00:44:54 | 48.43624 | 3.05260 | 148° | 13km/h | 26251m | 5.7m/s | -49.0°C | 0% | 0hPa | 5.0V | 00:00:00 | 00:00:00 | 00:00:00 | |
| DB0UT-7 | 2026-09-03 00:44:24 | 48.43676 | 3.05174 | 162° | 13km/h | 26079m | 5.0m/s | -48.8°C | 0% | 0hPa | 5.0V | 00:00:00 | 00:00:00 | 00:00:00 | |
| DB0UT-7 | 2026-09-03 00:43:54 | 48.43698 | 3.05110 | 233° | 11km/h | 25913m | 5.4m/s | -48.9°C | 0% | 0hPa | 5.0V | 00:00:00 | 00:00:00 | 00:00:00 | |
| DB0UT-7 | 2026-09-03 00:43:24 | 48.43674 | 3.05086 | 58° | 9km/h | 25752m | 5.4m/s | -49.9°C | 0% | 0hPa | 5.0V | 00:00:00 | 00:00:00 | 00:00:00 | |
| DB0UT-7 | 2026-09-03 00:42:54 | 48.43646 | 3.05015 | 141° | 13km/h | 25586m | 5.7m/s | -50.8°C | 0% | 0hPa | 5.0V | 00:00:00 | 00:00:00 | 00:00:00 | |
| DB0UT-7 | 2026-09-03 00:42:24 | 48.43592 | 3.05082 | 328° | 18km/h | 25419m | 5.8m/s | -50.7°C | 0% | 0hPa | 5.0V | 00:00:00 | 00:00:00 | 00:00:00 | |
| DB0UT-7 | 2026-09-03 00:41:54 | 48.43529 | 3.05254 | 275° | 15km/h | 25252m | 6.5m/s | -50.6°C | 0% | 0hPa | 5.0V | 00:00:00 | 00:00:00 | 00:00:00 | |
| DB0UT-7 | 2026-09-03 00:41:24 | 48.43541 | 3.05393 | 199° | 9km/h | 25083m | 4.8m/s | -50.4°C | 0% | 0hPa | 5.0V | 00:00:00 | 00:00:00 | 00:00:00 | |
| DB0UT-7 | 2026-09-03 00:40:53 | 48.43567 | 3.05454 | 338° | 9km/h | 24902m | 5.2m/s | -50.6°C | 0% | 0hPa | 5.0V | 00:00:00 | 00:00:00 | 00:00:00 | |
| DB0UT-7 | 2026-09-03 00:40:24 | 48.43560 | 3.05461 | 349° | 13km/h | 24732m | 5.1m/s | -50.7°C | 0% | 0hPa | 5.0V | 00:00:00 | 00:00:00 | 00:00:00 | |
| DB0UT-7 | 2026-09-03 00:39:53 | 48.43522 | 3.05580 | 287° | 16km/h | 24557m | 5.7m/s | -50.2°C | 0% | 0hPa | 5.1V | 00:00:00 | 00:00:00 | 00:00:00 | |
| DM0DOS-11 | 2026-09-03 00:39:34 | 48.43489 | 3.05706 | 322° | 16km/h | 24429m | 6.7m/s | -50.5°C | 0% | 0hPa | 5.1V | 00:00:00 | 00:00:00 | 00:00:00 | |
| DB0UT-7 | 2026-09-03 00:38:53 | 48.43411 | 3.05863 | 263° | 13km/h | 24227m | 6.2m/s | -50.9°C | 0% | 0hPa | 5.1V | 00:00:00 | 00:00:00 | 00:00:00 | |
| DB0UT-7 | 2026-09-03 00:38:24 | 48.43389 | 3.05984 | 279° | 22km/h | 24067m | 5.6m/s | -51.4°C | 0% | 0hPa | 5.1V | 00:00:00 | 00:00:00 | 00:00:00 | |
| DB0UT-7 | 2026-09-03 00:37:53 | 48.43418 | 3.06232 | 246° | 27km/h | 23907m | 6.1m/s | -50.9°C | 0% | 0hPa | 5.1V | 00:00:00 | 00:00:00 | 00:00:00 | |
| DB0UT-7 | 2026-09-03 00:37:23 | 48.43566 | 3.06449 | 182° | 18km/h | 23747m | 5.8m/s | -51.6°C | 0% | 0hPa | 5.1V | 00:00:00 | 00:00:00 | 00:00:00 | |
| DB0UT-7 | 2026-09-03 00:36:53 | 48.43678 | 3.06430 | 223° | 9km/h | 23590m | 5.8m/s | -51.9°C | 0% | 0hPa | 5.1V | 00:00:00 | 00:00:00 | 00:00:00 | |
| DB0UT-7 | 2026-09-03 00:36:23 | 48.43684 | 3.06387 | 197° | 13km/h | 23436m | 4.3m/s | -52.2°C | 0% | 0hPa | 5.1V | 00:00:00 | 00:00:00 | 00:00:00 | |
| DB0UT-7 | 2026-09-03 00:35:53 | 48.43755 | 3.06418 | 167° | 27km/h | 23275m | 5.5m/s | -52.6°C | 0% | 0hPa | 5.1V | 00:00:00 | 00:00:00 | 00:00:00 | |
| DB0UT-7 | 2026-09-03 00:35:23 | 48.43940 | 3.06462 | 197° | 20km/h | 23113m | 6.0m/s | -52.0°C | 0% | 0hPa | 5.1V | 00:00:00 | 00:00:00 | 00:00:00 | |
| DB0UT-7 | 2026-09-03 00:34:23 | 48.44164 | 3.06354 | 146° | 16km/h | 22794m | 4.3m/s | -52.2°C | 0% | 0hPa | 5.1V | 00:00:00 | 00:00:00 | 00:00:00 | |
| DB0UT-7 | 2026-09-03 00:33:53 | 48.44273 | 3.06251 | 129° | 16km/h | 22637m | 5.6m/s | -53.0°C | 0% | 0hPa | 5.1V | 00:00:00 | 00:00:00 | 00:00:00 | |
| DB0UT-7 | 2026-09-03 00:33:23 | 48.44326 | 3.06101 | 168° | 15km/h | 22481m | 6.2m/s | -53.0°C | 0% | 0hPa | 5.1V | 00:00:00 | 00:00:00 | 00:00:00 | |
| DB0UT-7 | 2026-09-03 00:32:52 | 48.44430 | 3.06042 | 150° | 29km/h | 22320m | 5.7m/s | -53.6°C | 0% | 0hPa | 5.1V | 00:00:00 | 00:00:00 | 00:00:00 | |
| DB0UT-7 | 2026-09-03 00:32:21 | 48.44570 | 3.05799 | 112° | 24km/h | 22159m | 5.6m/s | -54.3°C | 0% | 0hPa | 5.1V | 00:00:00 | 00:00:00 | 00:00:00 | |
| DB0UT-7 | 2026-09-03 00:31:51 | 48.44572 | 3.05545 | 92° | 16km/h | 22004m | 4.3m/s | -54.8°C | 0% | 0hPa | 5.1V | 00:00:00 | 00:00:00 | 00:00:00 | |
| DB0UT-7 | 2026-09-03 00:31:21 | 48.44499 | 3.05446 | 360° | 13km/h | 21851m | 5.1m/s | -54.8°C | 0% | 0hPa | 5.1V | 00:00:00 | 00:00:00 | 00:00:00 | |
| DM0DOS-11 | 2026-09-03 00:31:00 | 48.44461 | 3.05397 | 154° | 13km/h | 21721m | 6.2m/s | -54.5°C | 0% | 0hPa | 5.2V | 00:00:00 | 00:00:00 | 00:00:00 | |
| DB0UT-7 | 2026-09-03 00:30:51 | 48.44468 | 3.05378 | 26° | 13km/h | 21695m | 4.5m/s | -54.4°C | 0% | 0hPa | 5.2V | 00:00:00 | 00:00:00 | 00:00:00 | |
| DB0UT-7 | 2026-09-03 00:30:20 | 48.44469 | 3.05244 | 103° | 13km/h | 21531m | 5.8m/s | -54.3°C | 0% | 0hPa | 5.2V | 00:00:00 | 00:00:00 | 00:00:00 | |
| DB0UT-7 | 2026-09-03 00:29:49 | 48.44470 | 3.05115 | 114° | 18km/h | 21375m | 5.0m/s | -53.7°C | 0% | 0hPa | 5.2V | 00:00:00 | 00:00:00 | 00:00:00 | |
| DB0UT-7 | 2026-09-03 00:29:20 | 48.44541 | 3.04933 | 117° | 20km/h | 21229m | 5.1m/s | -53.9°C | 0% | 0hPa | 5.2V | 00:00:00 | 00:00:00 | 00:00:00 | |
| DB0UT-7 | 2026-09-03 00:28:48 | 48.44578 | 3.04666 | 95° | 16km/h | 21072m | 6.1m/s | -54.5°C | 0% | 0hPa | 5.2V | 00:00:00 | 00:00:00 | 00:00:00 | |
| DB0UT-7 | 2026-09-03 00:28:17 | 48.44636 | 3.04519 | 153° | 26km/h | 20926m | 4.9m/s | -54.0°C | 0% | 0hPa | 5.2V | 00:00:00 | 00:00:00 | 00:00:00 | |
| DB0UT-7 | 2026-09-03 00:27:47 | 48.44822 | 3.04388 | 157° | 24km/h | 20773m | 4.9m/s | -54.5°C | 0% | 0hPa | 5.2V | 00:00:00 | 00:00:00 | 00:00:00 | |
| DM0DOS-11 | 2026-09-03 00:27:36 | 48.44894 | 3.04298 | 129° | 29km/h | 20700m | 5.5m/s | -54.6°C | 0% | 0hPa | 5.2V | 00:00:00 | 00:00:00 | 00:00:00 | |
| DM0DOS-11 | 2026-09-03 00:27:24 | 48.44935 | 3.04198 | 119° | 27km/h | 20636m | 4.4m/s | -54.8°C | 0% | 0hPa | 5.2V | 00:00:00 | 00:00:00 | 00:00:00 | |
| DB0UT-7 | 2026-09-03 00:27:17 | 48.44940 | 3.04184 | 120° | 22km/h | 20626m | 4.7m/s | -54.8°C | 0% | 0hPa | 5.2V | 00:00:00 | 00:00:00 | 00:00:00 | |
| DM0DOS-11 | 2026-09-03 00:27:07 | 48.44947 | 3.04078 | 104° | 16km/h | 20565m | 4.9m/s | -54.6°C | 0% | 0hPa | 5.2V | 00:00:00 | 00:00:00 | 00:00:00 | |
| DM0DOS-11 | 2026-09-03 00:26:53 | 48.44968 | 3.03957 | 104° | 26km/h | 20481m | 3.5m/s | -54.5°C | 0% | 0hPa | 5.2V | 00:00:00 | 00:00:00 | 00:00:00 | |
| DB0UT-7 | 2026-09-03 00:26:47 | 48.44970 | 3.03948 | 102° | 27km/h | 20476m | 5.2m/s | -54.4°C | 0% | 0hPa | 5.2V | 00:00:00 | 00:00:00 | 00:00:00 | |
| DM0DOS-11 | 2026-09-03 00:26:42 | 48.44989 | 3.03871 | 116° | 31km/h | 20430m | 4.4m/s | -54.5°C | 0% | 0hPa | 5.2V | 00:00:00 | 00:00:00 | 00:00:00 | |
| DB0UT-7 | 2026-09-03 00:26:17 | 48.45042 | 3.03654 | 94° | 20km/h | 20325m | 3.9m/s | -54.2°C | 0% | 0hPa | 5.2V | 00:00:00 | 00:00:00 | 00:00:00 | |
| DB0UT-7 | 2026-09-03 00:25:41 | 48.45063 | 3.03351 | 129° | 20km/h | 20142m | 5.1m/s | -53.7°C | 0% | 0hPa | 5.2V | 00:00:00 | 00:00:00 | 00:00:00 | |
| DB0UT-7 | 2026-09-03 00:25:11 | 48.45142 | 3.03160 | 126° | 37km/h | 19986m | 6.0m/s | -54.0°C | 0% | 0hPa | 5.2V | 00:00:00 | 00:00:00 | 00:00:00 | |
| DB0UT-7 | 2026-09-03 00:24:41 | 48.45275 | 3.02810 | 119° | 29km/h | 19837m | 5.5m/s | -54.8°C | 0% | 0hPa | 5.3V | 00:00:00 | 00:00:00 | 00:00:00 | |
| DM0DOS-11 | 2026-09-03 00:24:15 | 48.45335 | 3.02456 | 115° | 24km/h | 19678m | 5m/s | -55.5°C | 0% | 0hPa | 5.3V | 00:00:00 | 00:00:00 | 00:00:00 | |
| DB0UT-7 | 2026-09-03 00:24:08 | 48.45337 | 3.02447 | 106° | 27km/h | 19673m | 5.3m/s | -55.4°C | 0% | 0hPa | 5.3V | 00:00:00 | 00:00:00 | 00:00:00 | |
| DM0DOS-11 | 2026-09-03 00:23:57 | 48.45368 | 3.02284 | 113° | 26km/h | 19591m | 4.8m/s | -55.7°C | 0% | 0hPa | 5.3V | 00:00:00 | 00:00:00 | 00:00:00 | |
| DM0DOS-11 | 2026-09-03 00:23:45 | 48.45404 | 3.02170 | 116° | 26km/h | 19532m | 5.8m/s | -56°C | 0% | 0hPa | 5.3V | 00:00:00 | 00:00:00 | 00:00:00 | |
| DB0UT-7 | 2026-09-03 00:23:38 | 48.45406 | 3.02161 | 107° | 37km/h | 19528m | 4.7m/s | -56.0°C | 0% | 0hPa | 5.2V | 00:00:00 | 00:00:00 | 00:00:00 | |
| DM0DOS-11 | 2026-09-03 00:23:14 | 48.45486 | 3.01790 | 108° | 29km/h | 19394m | 5.4m/s | -56.8°C | 0% | 0hPa | 5.3V | 00:00:00 | 00:00:00 | 00:00:00 | |
| DB0UT-7 | 2026-09-03 00:23:08 | 48.45491 | 3.01771 | 115° | 38km/h | 19385m | 5.3m/s | -56.8°C | 0% | 0hPa | 5.3V | 00:00:00 | 00:00:00 | 00:00:00 | |
| DM0DOS-11 | 2026-09-03 00:22:53 | 48.45551 | 3.01527 | 128° | 35km/h | 19296m | 4.8m/s | -57°C | 0% | 0hPa | 5.3V | 00:00:00 | 00:00:00 | 00:00:00 | |
| DM0DOS-11 | 2026-09-03 00:22:36 | 48.45632 | 3.01255 | 93° | 49km/h | 19201m | 5m/s | -57.2°C | 0% | 0hPa | 5.3V | 00:00:00 | 00:00:00 | 00:00:00 | |
| DB0UT-7 | 2026-09-03 00:22:03 | 48.45651 | 3.00829 | 93° | 37km/h | 19077m | 4.2m/s | -57.1°C | 0% | 0hPa | 5.2V | 00:00:00 | 00:00:00 | 00:00:00 | |
| DB0UT-7 | 2026-09-03 00:21:33 | 48.45612 | 3.00423 | 77° | 33km/h | 18933m | 4.5m/s | -56.6°C | 0% | 0hPa | 5.3V | 00:00:00 | 00:00:00 | 00:00:00 | |
| DB0UT-7 | 2026-09-03 00:21:03 | 48.45610 | 3.00084 | 103° | 26km/h | 18788m | 5.3m/s | -56.8°C | 0% | 0hPa | 5.3V | 00:00:00 | 00:00:00 | 00:00:00 | |
| DB0UT-7 | 2026-09-03 00:20:02 | 48.45860 | 2.99462 | 101° | 42km/h | 18491m | 4.3m/s | -56.0°C | 0% | 0hPa | 5.3V | 00:00:00 | 00:00:00 | 00:00:00 | |
| DB0UT-7 | 2026-09-03 00:19:32 | 48.45956 | 2.99021 | 113° | 33km/h | 18350m | 5.0m/s | -56.1°C | 0% | 0hPa | 5.3V | 00:00:00 | 00:00:00 | 00:00:00 | |
| DB0UT-7 | 2026-09-03 00:19:02 | 48.46009 | 2.98676 | 79° | 22km/h | 18210m | 5.5m/s | -55.6°C | 0% | 0hPa | 5.3V | 00:00:00 | 00:00:00 | 00:00:00 | |
| DM0DOS-11 | 2026-09-03 00:18:50 | 48.46019 | 2.98553 | 114° | 13km/h | 18139m | 4.9m/s | -55.5°C | 0% | 0hPa | 5.3V | 00:00:00 | 00:00:00 | 00:00:00 | |
| DM0DOS-11 | 2026-09-03 00:18:39 | 48.46055 | 2.98475 | 140° | 20km/h | 18078m | 4.1m/s | -55.1°C | 0% | 0hPa | 5.3V | 00:00:00 | 00:00:00 | 00:00:00 | |
| DB0UT-7 | 2026-09-03 00:18:33 | 48.46063 | 2.98462 | 120° | 27km/h | 18068m | 5.8m/s | -55.0°C | 0% | 0hPa | 5.3V | 00:00:00 | 00:00:00 | 00:00:00 | |
| DM0DOS-11 | 2026-09-03 00:18:26 | 48.46085 | 2.98399 | 134° | 27km/h | 18021m | 5.4m/s | -54.9°C | 0% | 0hPa | 5.3V | 00:00:00 | 00:00:00 | 00:00:00 | |
| DM0DOS-11 | 2026-09-03 00:18:16 | 48.46131 | 2.98323 | 128° | 37km/h | 17970m | 4.2m/s | -54.9°C | 0% | 0hPa | 5.3V | 00:00:00 | 00:00:00 | 00:00:00 | |
| DM0DOS-11 | 2026-09-03 00:18:04 | 48.46179 | 2.98238 | 135° | 46km/h | 17923m | 4.7m/s | -54.7°C | 0% | 0hPa | 5.3V | 00:00:00 | 00:00:00 | 00:00:00 | |
| DB0UT-7 | 2026-09-03 00:18:02 | 48.46187 | 2.98226 | 130° | 51km/h | 17918m | 5.8m/s | -54.7°C | 0% | 0hPa | 5.3V | 00:00:00 | 00:00:00 | 00:00:00 | |
| DM0DOS-11 | 2026-09-03 00:17:58 | 48.46246 | 2.98100 | 128° | 49km/h | 17870m | 4.9m/s | -55.4°C | 0% | 0hPa | 5.3V | 00:00:00 | 00:00:00 | 00:00:00 | |
| DM0DOS-11 | 2026-09-03 00:17:47 | 48.46321 | 2.97900 | 114° | 51km/h | 17814m | 5m/s | -55.5°C | 0% | 0hPa | 5.3V | 00:00:00 | 00:00:00 | 00:00:00 | |
| DM0DOS-11 | 2026-09-03 00:17:34 | 48.46382 | 2.97671 | 111° | 51km/h | 17757m | 4.5m/s | -56.6°C | 0% | 0hPa | 5.3V | 00:00:00 | 00:00:00 | 00:00:00 | |
| DM0DOS-11 | 2026-09-03 00:17:23 | 48.46415 | 2.97468 | 98° | 55km/h | 17710m | 5.1m/s | -56.6°C | 0% | 0hPa | 5.3V | 00:00:00 | 00:00:00 | 00:00:00 | |
| DB0UT-7 | 2026-09-03 00:17:20 | 48.46413 | 2.97508 | 93° | 57km/h | 17719m | 3.8m/s | -56.6°C | 0% | 0hPa | 5.3V | 00:00:00 | 00:00:00 | 00:00:00 | |
| DM0DOS-11 | 2026-09-03 00:17:11 | 48.46451 | 2.97225 | 102° | 55km/h | 17653m | 4.9m/s | -56.8°C | 0% | 0hPa | 5.3V | 00:00:00 | 00:00:00 | 00:00:00 | |
| DB0UT-7 | 2026-09-03 00:16:50 | 48.46514 | 2.96885 | 107° | 60km/h | 17580m | 4.6m/s | -56.9°C | 0% | 0hPa | 5.3V | 00:00:00 | 00:00:00 | 00:00:00 | |
| DB0UT-7 | 2026-09-03 00:16:20 | 48.46549 | 2.96212 | 95° | 55km/h | 17443m | 4.1m/s | -57.7°C | 0% | 0hPa | 5.3V | 00:00:00 | 00:00:00 | 00:00:00 | |
| DB0UT-7 | 2026-09-03 00:15:50 | 48.46559 | 2.95632 | 93° | 40km/h | 17303m | 5.4m/s | -57.0°C | 0% | 0hPa | 5.3V | 00:00:00 | 00:00:00 | 00:00:00 | |
| DB0UT-7 | 2026-09-03 00:15:20 | 48.46559 | 2.95178 | 101° | 38km/h | 17157m | 5.2m/s | -56.7°C | 0% | 0hPa | 5.3V | 00:00:00 | 00:00:00 | 00:00:00 | |
| DB0UT-7 | 2026-09-03 00:14:50 | 48.46641 | 2.94768 | 118° | 40km/h | 17015m | 4.2m/s | -56.9°C | 0% | 0hPa | 5.3V | 00:00:00 | 00:00:00 | 00:00:00 | |
| DB0UT-7 | 2026-09-03 00:14:20 | 48.46814 | 2.94397 | 135° | 55km/h | 16875m | 4.4m/s | -56.7°C | 0% | 0hPa | 5.3V | 00:00:00 | 00:00:00 | 00:00:00 | |
| DB0UT-7 | 2026-09-03 00:13:48 | 48.47089 | 2.93882 | 128° | 64km/h | 16730m | 4.4m/s | -57.3°C | 0% | 0hPa | 5.4V | 00:00:00 | 00:00:00 | 00:00:00 | |
| DM0DOS-11 | 2026-09-03 00:13:20 | 48.47393 | 2.93305 | 130° | 64km/h | 16601m | 5.1m/s | -57.5°C | 0% | 0hPa | 5.4V | 00:00:00 | 00:00:00 | 00:00:00 | |
| DM0DOS-11 | 2026-09-03 00:13:09 | 48.47535 | 2.93036 | 122° | 73km/h | 16541m | 3.6m/s | -57.6°C | 0% | 0hPa | 5.4V | 00:00:00 | 00:00:00 | 00:00:00 | |
| DM0DOS-11 | 2026-09-03 00:12:58 | 48.47642 | 2.92834 | 124° | 62km/h | 16499m | 4.4m/s | -57.6°C | 0% | 0hPa | 5.4V | 00:00:00 | 00:00:00 | 00:00:00 | |
| DM0DOS-11 | 2026-09-03 00:12:48 | 48.47731 | 2.92622 | 124° | 71km/h | 16458m | 3.5m/s | -57.4°C | 0% | 0hPa | 5.4V | 00:00:00 | 00:00:00 | 00:00:00 | |
| DM0DOS-11 | 2026-09-03 00:12:18 | 48.47964 | 2.92044 | 115° | 57km/h | 16342m | 4m/s | -57.3°C | 0% | 0hPa | 5.4V | 00:00:00 | 00:00:00 | 00:00:00 | |
| DB0UT-7 | 2026-09-03 00:12:18 | 48.47957 | 2.92063 | 124° | 64km/h | 16346m | 4.8m/s | -57.3°C | 0% | 0hPa | 5.4V | 00:00:00 | 00:00:00 | 00:00:00 | |
| DM0DOS-11 | 2026-09-03 00:12:07 | 48.48067 | 2.91783 | 117° | 51km/h | 16285m | 3.7m/s | -57.4°C | 0% | 0hPa | 5.4V | 00:00:00 | 00:00:00 | 00:00:00 | |
| DM0DOS-11 | 2026-09-03 00:11:51 | 48.48192 | 2.91481 | 121° | 69km/h | 16217m | 3.8m/s | -57.5°C | 0% | 0hPa | 5.4V | 00:00:00 | 00:00:00 | 00:00:00 | |
| DB0UT-7 | 2026-09-03 00:11:44 | 48.48227 | 2.91364 | 112° | 69km/h | 16194m | 4.6m/s | -57.6°C | 0% | 0hPa | 5.4V | 00:00:00 | 00:00:00 | 00:00:00 | |
| DM0DOS-11 | 2026-09-03 00:11:41 | 48.48281 | 2.91168 | 110° | 75km/h | 16159m | 4.9m/s | -57.9°C | 0% | 0hPa | 5.4V | 00:00:00 | 00:00:00 | 00:00:00 | |
| DM0DOS-11 | 2026-09-03 00:11:25 | 48.48347 | 2.90869 | 101° | 77km/h | 16106m | 4.2m/s | -58.5°C | 0% | 0hPa | 5.4V | 00:00:00 | 00:00:00 | 00:00:00 | |
| DM0DOS-11 | 2026-09-03 00:11:15 | 48.48391 | 2.90580 | 102° | 69km/h | 16057m | 4.5m/s | -59°C | 0% | 0hPa | 5.4V | 00:00:00 | 00:00:00 | 00:00:00 | |
| DB0UT-7 | 2026-09-03 00:11:14 | 48.48387 | 2.90606 | 107° | 62km/h | 16062m | 4.9m/s | -58.9°C | 0% | 0hPa | 5.4V | 00:00:00 | 00:00:00 | 00:00:00 | |
| DB0UT-7 | 2026-09-03 00:10:36 | 48.48463 | 2.89740 | 102° | 51km/h | 15895m | 4.9m/s | -59.0°C | 0% | 0hPa | 5.4V | 00:00:00 | 00:00:00 | 00:00:00 | |
| DB0UT-7 | 2026-09-03 00:09:59 | 48.48590 | 2.89082 | 122° | 57km/h | 15726m | 4.8m/s | -58.1°C | 0% | 0hPa | 5.4V | 00:00:00 | 00:00:00 | 00:00:00 | |
| DB0UT-7 | 2026-09-03 00:09:29 | 48.48805 | 2.88534 | 119° | 73km/h | 15586m | 5.4m/s | -58.4°C | 0% | 0hPa | 5.4V | 00:00:00 | 00:00:00 | 00:00:00 | |
| DB0UT-7 | 2026-09-03 00:08:24 | 48.49367 | 2.86970 | 118° | 69km/h | 15318m | 3.8m/s | -58.4°C | 0% | 0hPa | 5.4V | 00:00:00 | 00:00:00 | 00:00:00 | |
| DB0UT-7 | 2026-09-03 00:07:54 | 48.49527 | 2.86215 | 104° | 66km/h | 15203m | 3.0m/s | -59.2°C | 0% | 0hPa | 5.4V | 00:00:00 | 00:00:00 | 00:00:00 | |
| DB0UT-7 | 2026-09-03 00:07:24 | 48.49644 | 2.85486 | 112° | 80km/h | 15082m | 3.6m/s | -59.4°C | 0% | 0hPa | 5.4V | 00:00:00 | 00:00:00 | 00:00:00 | |
| DB0UT-7 | 2026-09-03 00:06:25 | 48.50171 | 2.84047 | 119° | 95km/h | 14821m | 4.7m/s | -59.0°C | 0% | 0hPa | 5.4V | 00:00:00 | 00:00:00 | 00:00:00 | |
| DB0UT-7 | 2026-09-03 00:05:55 | 48.50500 | 2.83084 | 117° | 97km/h | 14692m | 4.1m/s | -59.1°C | 0% | 0hPa | 5.4V | 00:00:00 | 00:00:00 | 00:00:00 | |
| DB0UT-7 | 2026-09-03 00:05:24 | 48.50778 | 2.82020 | 112° | 93km/h | 14548m | 4.3m/s | -59.1°C | 0% | 0hPa | 5.4V | 00:00:00 | 00:00:00 | 00:00:00 | |
| DB0UT-7 | 2026-09-03 00:04:53 | 48.51051 | 2.80995 | 114° | 89km/h | 14406m | 4.5m/s | -59.3°C | 0% | 0hPa | 5.4V | 00:00:00 | 00:00:00 | 00:00:00 | |
| DB0UT-7 | 2026-09-03 00:04:23 | 48.51290 | 2.80050 | 111° | 95km/h | 14267m | 4.5m/s | -59.1°C | 0% | 0hPa | 5.4V | 00:00:00 | 00:00:00 | 00:00:00 | |
| DB0UT-7 | 2026-09-03 00:03:07 | 48.51937 | 2.77590 | 116° | 104km/h | 13924m | 3.6m/s | -59.8°C | 0% | 0hPa | 5.4V | 00:00:00 | 00:00:00 | 00:00:00 | |
| DB0UT-7 | 2026-09-03 00:02:26 | 48.52613 | 2.75438 | 121° | 115km/h | 13664m | 4.0m/s | -60.0°C | 0% | 0hPa | 5.4V | 00:00:00 | 00:00:00 | 00:00:00 | |
| DB0UT-7 | 2026-09-03 00:01:10 | 48.53445 | 2.73164 | 114° | 111km/h | 13412m | 3.7m/s | -60.2°C | 0% | 0hPa | 5.4V | 00:00:00 | 00:00:00 | 00:00:00 | |
| DB0UT-7 | 2026-09-03 00:00:42 | 48.53805 | 2.72020 | 121° | 110km/h | 13289m | 4.2m/s | -60.4°C | 0% | 0hPa | 5.4V | 00:00:00 | 00:00:00 | 00:00:00 | |
| DB0UT-7 | 2026-09-03 00:00:03 | 48.54177 | 2.70841 | 118° | 108km/h | 13158m | 4.6m/s | -60.2°C | 0% | 0hPa | 5.4V | 00:00:00 | 00:00:00 | 00:00:00 | |
| DB0UT-7 | 2026-09-02 23:59:30 | 48.54573 | 2.69627 | 112° | 106km/h | 13028m | 3.7m/s | -59.7°C | 0% | 0hPa | 5.5V | 00:00:00 | 00:00:00 | 00:00:00 | |
| DB0UT-7 | 2026-09-02 23:59:00 | 48.54937 | 2.68536 | 117° | 106km/h | 12903m | 3.5m/s | -59.3°C | 0% | 0hPa | 5.5V | 00:00:00 | 00:00:00 | 00:00:00 | |
| DB0UT-7 | 2026-09-02 23:58:28 | 48.55348 | 2.67412 | 121° | 106km/h | 12771m | 3.7m/s | -58.7°C | 0% | 0hPa | 5.5V | 00:00:00 | 00:00:00 | 00:00:00 | |
| DB0UT-7 | 2026-09-02 23:57:56 | 48.55796 | 2.66318 | 121° | 108km/h | 12636m | 4.0m/s | -58.3°C | 0% | 0hPa | 5.5V | 00:00:00 | 00:00:00 | 00:00:00 | |
| DB0UT-7 | 2026-09-02 23:57:26 | 48.56234 | 2.65272 | 126° | 106km/h | 12510m | 4.4m/s | -57.6°C | 0% | 0hPa | 5.5V | 00:00:00 | 00:00:00 | 00:00:00 | |
| DB0UT-7 | 2026-09-02 23:56:55 | 48.56681 | 2.64212 | 123° | 108km/h | 12377m | 4.2m/s | -57.2°C | 0% | 0hPa | 5.5V | 00:00:00 | 00:00:00 | 00:00:00 | |
| DB0UT-7 | 2026-09-02 23:56:20 | 48.57211 | 2.63024 | 127° | 113km/h | 12225m | 4.4m/s | -56.7°C | 0% | 0hPa | 5.5V | 00:00:00 | 00:00:00 | 00:00:00 | |
| DB0UT-7 | 2026-09-02 23:55:50 | 48.57679 | 2.61944 | 118° | 108km/h | 12083m | 3.6m/s | -55.6°C | 0% | 0hPa | 5.5V | 00:00:00 | 00:00:00 | 00:00:00 | |
| DB0UT-7 | 2026-09-02 23:55:20 | 48.58105 | 2.60880 | 118° | 104km/h | 11947m | 4.1m/s | -54.5°C | 0% | 0hPa | 5.5V | 00:00:00 | 00:00:00 | 00:00:00 | |
| DB0UT-7 | 2026-09-02 23:54:47 | 48.58531 | 2.59723 | 121° | 102km/h | 11791m | 4.4m/s | -53.5°C | 0% | 0hPa | 5.5V | 00:00:00 | 00:00:00 | 00:00:00 | |
| DB0UT-7 | 2026-09-02 23:54:17 | 48.58917 | 2.58706 | 123° | 104km/h | 11653m | 4.9m/s | -52.8°C | 0% | 0hPa | 5.5V | 00:00:00 | 00:00:00 | 00:00:00 | |
| DB0UT-7 | 2026-09-02 23:53:47 | 48.59316 | 2.57673 | 121° | 104km/h | 11517m | 5.2m/s | -51.8°C | 0% | 0hPa | 5.5V | 00:00:00 | 00:00:00 | 00:00:00 | |
| DB0UT-7 | 2026-09-02 23:53:04 | 48.59887 | 2.56196 | 120° | 104km/h | 11325m | 3.6m/s | -50.4°C | 0% | 0hPa | 5.5V | 00:00:00 | 00:00:00 | 00:00:00 | |
| DB0UT-7 | 2026-09-02 23:52:34 | 48.60257 | 2.55145 | 116° | 102km/h | 11189m | 4.1m/s | -49.3°C | 0% | 0hPa | 5.5V | 00:00:00 | 00:00:00 | 00:00:00 | |
| DB0UT-7 | 2026-09-02 23:52:04 | 48.60616 | 2.54104 | 117° | 106km/h | 11054m | 4.5m/s | -48.2°C | 0% | 0hPa | 5.5V | 00:00:00 | 00:00:00 | 00:00:00 | |
| DB0UT-7 | 2026-09-02 23:51:34 | 48.60978 | 2.53023 | 119° | 108km/h | 10919m | 4.0m/s | -47.1°C | 0% | 0hPa | 5.5V | 00:00:00 | 00:00:00 | 00:00:00 | |
| DB0UT-7 | 2026-09-02 23:51:02 | 48.61377 | 2.51862 | 124° | 106km/h | 10781m | 4.5m/s | -46.4°C | 0% | 0hPa | 5.5V | 00:00:00 | 00:00:00 | 00:00:00 | |
| DB0UT-7 | 2026-09-02 23:50:32 | 48.61725 | 2.50793 | 115° | 102km/h | 10642m | 3.9m/s | -45.6°C | 0% | 0hPa | 5.5V | 00:00:00 | 00:00:00 | 00:00:00 | |
| DB0UT-7 | 2026-09-02 23:49:45 | 48.62297 | 2.49185 | 125° | 102km/h | 10427m | 4.4m/s | -44.2°C | 0% | 0hPa | 5.5V | 00:00:00 | 00:00:00 | 00:00:00 | |
| DB0UT-7 | 2026-09-02 23:49:15 | 48.62683 | 2.48162 | 119° | 99km/h | 10298m | 4.9m/s | -43.1°C | 0% | 0hPa | 5.5V | 00:00:00 | 00:00:00 | 00:00:00 | |
| DB0UT-7 | 2026-09-02 23:48:45 | 48.63042 | 2.47154 | 113° | 104km/h | 10169m | 4.5m/s | -42.2°C | 0% | 0hPa | 5.5V | 00:00:00 | 00:00:00 | 00:00:00 | |
| DB0UT-7 | 2026-09-02 23:47:48 | 48.63688 | 2.45130 | 107° | 100km/h | 9923m | 4.5m/s | -40.4°C | 0% | 0hPa | 5.5V | 00:00:00 | 00:00:00 | 00:00:00 | |
| DB0UT-7 | 2026-09-02 23:47:18 | 48.63983 | 2.44066 | 115° | 97km/h | 9795m | 3.7m/s | -39.3°C | 0% | 0hPa | 5.5V | 00:00:00 | 00:00:00 | 00:00:00 | |
| DB0UT-7 | 2026-09-02 23:46:33 | 48.64424 | 2.42510 | 112° | 99km/h | 9604m | 4.3m/s | -37.7°C | 0% | 0hPa | 5.5V | 00:00:00 | 00:00:00 | 00:00:00 | |
| DB0UT-7 | 2026-09-02 23:45:54 | 48.64799 | 2.41163 | 116° | 104km/h | 9435m | 3.6m/s | -36.5°C | 0% | 0hPa | 5.5V | 00:00:00 | 00:00:00 | 00:00:00 | |
| DB0UT-7 | 2026-09-02 23:45:24 | 48.65095 | 2.40050 | 115° | 104km/h | 9288m | 5.7m/s | -35.2°C | 0% | 0hPa | 5.5V | 00:00:00 | 00:00:00 | 00:00:00 | |
| DB0UT-7 | 2026-09-02 23:44:54 | 48.65388 | 2.38927 | 113° | 102km/h | 9150m | 4.4m/s | -33.9°C | 0% | 0hPa | 5.5V | 00:00:00 | 00:00:00 | 00:00:00 | |
| DB0UT-7 | 2026-09-02 23:44:24 | 48.65680 | 2.37824 | 110° | 104km/h | 9013m | 4.8m/s | -32.8°C | 0% | 0hPa | 5.5V | 00:00:00 | 00:00:00 | 00:00:00 | |
| DB0UT-7 | 2026-09-02 23:43:54 | 48.65961 | 2.36713 | 113° | 100km/h | 8878m | 4.8m/s | -31.9°C | 0% | 0hPa | 5.5V | 00:00:00 | 00:00:00 | 00:00:00 | |
| DB0UT-7 | 2026-09-02 23:42:41 | 48.66620 | 2.34128 | 117° | 100km/h | 8524m | 6.3m/s | -29.6°C | 0% | 0hPa | 5.5V | 00:00:00 | 00:00:00 | 00:00:00 | |
| DB0UT-7 | 2026-09-02 23:42:12 | 48.66930 | 2.33087 | 108° | 97km/h | 8362m | 5.1m/s | -28.3°C | 0% | 0hPa | 5.6V | 00:00:00 | 00:00:00 | 00:00:00 | |
| DB0UT-7 | 2026-09-02 23:40:59 | 48.67669 | 2.30673 | 116° | 95km/h | 7979m | 5.9m/s | -24.9°C | 0% | 0hPa | 5.6V | 00:00:00 | 00:00:00 | 00:00:00 | |
| DB0UT-7 | 2026-09-02 23:40:29 | 48.67974 | 2.29696 | 111° | 89km/h | 7835m | 5.0m/s | -24.1°C | 0% | 0hPa | 5.6V | 00:00:00 | 00:00:00 | 00:00:00 |